Time;durP1;ratioP1;P1;durP2;ratioP2;P2;SDS_P1;SDS_P2;PMS_P1;PMS_P2;Temp;Humidity;BMP_temperature;BMP_pressure;BME280_temperature;BME280_humidity;BME280_pressure;Samples;Min_cycle;Max_cycle;Signal;HPM_P1;HPM_P2
2023/12/10 00:02:20;;;;;;;3.07;2.53;;;4.30;99.90;;;;;;6282918;22;20149;-88
2023/12/10 00:04:46;;;;;;;4.93;2.63;;;4.30;99.90;;;;;;6283275;22;20164;-86
2023/12/10 00:07:12;;;;;;;3.50;2.60;;;4.30;99.90;;;;;;6283249;22;20175;-87
2023/12/10 00:09:37;;;;;;;3.13;2.57;;;4.30;99.90;;;;;;6283485;22;20191;-86
2023/12/10 00:12:03;;;;;;;3.73;2.33;;;4.30;99.90;;;;;;6283153;22;20559;-87
2023/12/10 00:14:29;;;;;;;3.90;2.53;;;4.30;99.90;;;;;;6283143;22;20166;-86
2023/12/10 00:16:55;;;;;;;2.87;2.33;;;4.30;99.90;;;;;;6281982;22;20152;-85
2023/12/10 00:19:21;;;;;;;2.57;2.23;;;4.30;99.90;;;;;;6282669;22;20231;-88
2023/12/10 00:21:47;;;;;;;3.10;2.00;;;4.30;99.90;;;;;;6282832;22;20148;-88
2023/12/10 00:24:12;;;;;;;2.30;2.00;;;4.40;99.90;;;;;;6309820;22;20164;-86
2023/12/10 00:26:38;;;;;;;3.47;1.70;;;4.50;99.90;;;;;;6282643;22;20372;-88
2023/12/10 00:29:04;;;;;;;4.50;1.20;;;4.40;99.90;;;;;;6309012;22;20183;-87
2023/12/10 00:31:30;;;;;;;1.40;1.30;;;4.40;99.90;;;;;;6309832;22;20140;-87
2023/12/10 00:33:56;;;;;;;1.73;1.10;;;4.50;99.90;;;;;;6309012;22;20155;-88
2023/12/10 00:36:21;;;;;;;1.50;1.10;;;4.40;99.90;;;;;;6274283;22;20182;-85
2023/12/10 00:38:47;;;;;;;1.10;0.90;;;4.50;99.90;;;;;;6307557;22;20144;-86
2023/12/10 00:41:13;;;;;;;1.60;1.20;;;4.50;99.90;;;;;;6308377;22;20148;-86
2023/12/10 00:43:40;;;;;;;4.10;1.20;;;4.50;99.90;;;;;;6281745;22;20163;-84
2023/12/10 00:46:06;;;;;;;3.47;1.30;;;4.50;99.90;;;;;;6280393;22;20167;-87
2023/12/10 00:48:33;;;;;;;1.43;1.00;;;4.50;99.90;;;;;;6280241;22;20215;-86
2023/12/10 00:50:59;;;;;;;1.27;1.00;;;4.60;99.90;;;;;;6307627;22;20227;-85
2023/12/10 00:53:25;;;;;;;1.60;1.20;;;4.60;99.90;;;;;;6280318;22;20187;-86
2023/12/10 00:55:51;;;;;;;2.23;1.33;;;4.60;99.90;;;;;;6308272;22;20144;-86
2023/12/10 00:58:19;;;;;;;2.03;1.30;;;4.60;99.90;;;;;;6280125;22;20202;-87
2023/12/10 01:00:45;;;;;;;2.60;1.40;;;4.70;99.90;;;;;;6280891;22;20152;-86
2023/12/10 01:03:11;;;;;;;2.10;1.60;;;4.70;99.90;;;;;;6282156;22;20156;-87
2023/12/10 01:05:37;;;;;;;3.03;1.37;;;4.60;99.90;;;;;;6282192;22;20163;-86
2023/12/10 01:08:03;;;;;;;2.40;1.70;;;4.70;99.90;;;;;;6282021;22;20553;-85
2023/12/10 01:10:29;;;;;;;2.17;1.33;;;4.70;99.90;;;;;;6309145;22;20140;-86
2023/12/10 01:12:56;;;;;;;3.10;1.50;;;4.70;99.90;;;;;;6309822;22;20439;-87
2023/12/10 01:15:29;;;;;;;2.37;1.60;;;4.70;99.90;;;;;;6309083;22;20223;-86
2023/12/10 01:18:00;;;;;;;3.57;2.00;;;4.70;99.90;;;;;;6234150;22;20199;-85
2023/12/10 01:20:30;;;;;;;2.67;1.87;;;4.60;99.90;;;;;;6281569;22;20175;-85
2023/12/10 01:22:57;;;;;;;3.67;2.33;;;4.60;99.90;;;;;;6281530;22;20147;-86
2023/12/10 01:25:24;;;;;;;2.70;1.60;;;4.60;99.90;;;;;;6309733;22;20458;-90
2023/12/10 01:27:52;;;;;;;2.70;1.77;;;4.60;99.90;;;;;;6281264;22;20775;-90
2023/12/10 01:30:23;;;;;;;4.33;2.00;;;4.70;99.90;;;;;;6282687;22;20251;-90
2023/12/10 01:32:51;;;;;;;5.50;2.03;;;4.60;99.90;;;;;;6282892;22;20148;-91
2023/12/10 01:35:17;;;;;;;3.10;1.80;;;4.60;99.90;;;;;;6309509;22;20148;-90
2023/12/10 01:37:46;;;;;;;4.07;2.20;;;4.60;99.90;;;;;;6309826;22;20175;-89
2023/12/10 01:40:19;;;;;;;5.60;2.30;;;4.60;99.90;;;;;;6282639;22;20205;-91
2023/12/10 01:42:46;;;;;;;6.87;2.33;;;4.70;99.90;;;;;;6283101;22;20151;-91
2023/12/10 01:45:12;;;;;;;6.80;2.40;;;4.70;99.90;;;;;;6282719;22;20433;-91
2023/12/10 01:47:43;;;;;;;3.77;2.40;;;4.80;99.90;;;;;;6309770;22;20586;-90
2023/12/10 01:50:44;;;;;;;3.17;2.17;;;4.90;99.90;;;;;;6282882;22;20144;-91
2023/12/10 01:53:10;;;;;;;5.97;2.50;;;5.00;99.90;;;;;;6282543;22;20151;-91
2023/12/10 01:55:36;;;;;;;4.60;2.70;;;5.00;99.90;;;;;;6282691;22;20232;-91
2023/12/10 01:58:04;;;;;;;8.57;2.77;;;5.00;99.90;;;;;;6310235;22;20148;-90
2023/12/10 02:00:30;;;;;;;9.50;2.57;;;5.10;99.90;;;;;;6283432;22;20155;-90
2023/12/10 02:02:56;;;;;;;7.07;3.00;;;5.20;99.90;;;;;;6309786;22;20485;-86
2023/12/10 02:05:23;;;;;;;11.53;3.37;;;5.20;99.90;;;;;;6281926;22;20160;-86
2023/12/10 02:07:49;;;;;;;10.00;3.03;;;5.30;99.90;;;;;;6281663;22;20179;-85
2023/12/10 02:10:15;;;;;;;15.70;4.17;;;5.30;99.90;;;;;;6282271;22;20156;-86
2023/12/10 02:12:43;;;;;;;16.77;4.00;;;5.40;99.90;;;;;;6282377;22;20148;-86
2023/12/10 02:15:19;;;;;;;14.47;3.77;;;5.50;99.90;;;;;;6282089;22;20523;-87
2023/12/10 02:17:46;;;;;;;11.20;4.07;;;5.60;99.90;;;;;;6309134;22;20144;-86
2023/12/10 02:20:13;;;;;;;12.50;4.50;;;5.70;99.90;;;;;;6281989;22;20183;-86
2023/12/10 02:23:01;;;;;;;16.60;4.40;;;5.70;99.90;;;;;;6309090;22;20132;-88
2023/12/10 02:25:35;;;;;;;19.77;4.57;;;5.80;99.90;;;;;;6282184;22;20247;-88
2023/12/10 02:28:05;;;;;;;21.83;5.67;;;5.80;99.90;;;;;;6282026;22;20204;-86
2023/12/10 02:30:32;;;;;;;21.00;4.70;;;5.90;99.90;;;;;;6309567;22;20143;-85
2023/12/10 02:32:58;;;;;;;19.23;5.43;;;5.90;99.90;;;;;;6281504;22;20543;-86
2023/12/10 02:35:26;;;;;;;20.70;5.17;;;6.00;99.90;;;;;;6281187;22;20152;-86
2023/12/10 02:37:52;;;;;;;15.97;4.57;;;6.00;99.90;;;;;;6308819;22;20219;-86
2023/12/10 02:40:18;;;;;;;18.20;4.90;;;6.00;99.90;;;;;;6309150;22;20174;-86
2023/12/10 02:42:47;;;;;;;16.33;4.20;;;6.00;99.90;;;;;;6282037;22;20583;-87
2023/12/10 02:45:16;;;;;;;14.70;4.10;;;6.00;99.90;;;;;;6309089;22;20144;-87
2023/12/10 02:47:43;;;;;;;18.60;4.53;;;6.00;99.90;;;;;;6283082;22;20218;-86
2023/12/10 02:50:09;;;;;;;19.40;4.80;;;6.00;99.90;;;;;;6311256;22;20159;-88
2023/12/10 02:52:38;;;;;;;19.43;4.67;;;6.00;99.90;;;;;;6283656;22;20159;-87
2023/12/10 02:55:05;;;;;;;17.07;4.93;;;6.00;99.90;;;;;;6283836;22;20166;-88
2023/12/10 02:57:31;;;;;;;24.70;4.73;;;6.10;99.90;;;;;;6311065;22;20543;-86
2023/12/10 02:59:57;;;;;;;29.37;6.23;;;6.20;99.90;;;;;;6283405;22;20156;-86
2023/12/10 03:02:23;;;;;;;16.73;4.63;;;6.20;99.90;;;;;;6283765;22;20162;-86
2023/12/10 03:04:48;;;;;;;23.70;5.03;;;6.30;99.90;;;;;;6283644;22;20182;-89
2023/12/10 03:07:14;;;;;;;27.87;4.80;;;6.30;99.90;;;;;;6283056;22;20183;-86
2023/12/10 03:09:42;;;;;;;26.27;4.87;;;6.40;99.90;;;;;;6283693;22;20187;-87
2023/12/10 03:12:08;;;;;;;29.87;4.70;;;6.40;99.90;;;;;;6283682;22;20241;-88
2023/12/10 03:14:34;;;;;;;20.37;4.53;;;6.40;99.90;;;;;;6310923;22;20152;-89
2023/12/10 03:17:00;;;;;;;29.87;4.93;;;6.50;99.90;;;;;;6283116;22;20152;-87
2023/12/10 03:19:25;;;;;;;33.20;5.30;;;6.50;99.90;;;;;;6283285;22;20625;-88
2023/12/10 03:21:51;;;;;;;30.40;4.87;;;6.50;99.90;;;;;;6283030;22;20155;-87
2023/12/10 03:24:17;;;;;;;30.23;5.87;;;6.60;99.90;;;;;;6310779;22;20540;-86
2023/12/10 03:26:42;;;;;;;30.50;4.97;;;6.50;99.90;;;;;;6283403;22;20167;-86
2023/12/10 03:29:08;;;;;;;29.87;5.40;;;6.50;99.90;;;;;;6310491;22;20180;-89
2023/12/10 03:31:34;;;;;;;27.80;4.57;;;6.50;99.90;;;;;;6283406;22;20265;-88
2023/12/10 03:34:00;;;;;;;31.20;4.77;;;6.50;99.90;;;;;;6283351;22;20536;-87
2023/12/10 03:36:25;;;;;;;26.37;4.53;;;6.40;99.90;;;;;;6283419;22;20148;-87
2023/12/10 03:38:51;;;;;;;21.50;4.33;;;6.40;99.90;;;;;;6283016;22;20155;-87
2023/12/10 03:41:24;;;;;;;31.47;4.47;;;6.30;99.90;;;;;;6283143;22;20151;-86
2023/12/10 03:43:50;;;;;;;25.20;4.17;;;6.40;99.90;;;;;;6283175;22;20167;-88
2023/12/10 03:46:15;;;;;;;33.50;6.10;;;6.30;99.90;;;;;;6282829;22;20148;-85
2023/12/10 03:48:41;;;;;;;27.07;4.73;;;6.40;99.90;;;;;;6283043;22;20211;-88
2023/12/10 03:51:07;;;;;;;35.17;5.53;;;6.30;99.90;;;;;;6283078;22;20159;-88
2023/12/10 03:53:33;;;;;;;31.90;5.87;;;6.40;99.90;;;;;;6282945;22;20167;-87
2023/12/10 03:55:59;;;;;;;30.93;5.40;;;6.50;99.90;;;;;;6282797;22;20171;-90
2023/12/10 03:58:25;;;;;;;33.37;5.70;;;6.50;99.90;;;;;;6282552;22;20156;-87
2023/12/10 04:00:50;;;;;;;30.03;4.87;;;6.50;99.90;;;;;;6283069;22;20160;-86
2023/12/10 04:03:16;;;;;;;34.97;6.03;;;6.50;99.90;;;;;;6283349;22;20444;-87
2023/12/10 04:05:42;;;;;;;29.60;5.07;;;6.60;99.90;;;;;;6310465;22;20174;-86
2023/12/10 04:08:08;;;;;;;32.63;6.20;;;6.60;99.90;;;;;;6310199;22;20645;-87
2023/12/10 04:10:35;;;;;;;42.60;5.77;;;6.60;99.90;;;;;;6283256;22;20433;-89
2023/12/10 04:13:00;;;;;;;31.77;5.90;;;6.50;99.90;;;;;;6283261;22;20653;-87
2023/12/10 04:15:27;;;;;;;30.23;5.80;;;6.60;99.90;;;;;;6282915;22;20156;-86
2023/12/10 04:17:52;;;;;;;26.10;5.77;;;6.60;99.90;;;;;;6283143;22;20192;-86
2023/12/10 04:20:19;;;;;;;33.57;6.50;;;6.60;99.90;;;;;;6309971;22;20201;-87
2023/12/10 04:22:45;;;;;;;33.63;6.23;;;6.60;99.90;;;;;;6283000;22;20151;-88
2023/12/10 04:25:11;;;;;;;34.60;5.47;;;6.60;99.90;;;;;;6310254;22;20182;-87
2023/12/10 04:27:37;;;;;;;33.60;5.73;;;6.60;99.90;;;;;;6310770;22;20190;-87
2023/12/10 04:30:03;;;;;;;29.13;6.03;;;6.60;99.90;;;;;;6283189;22;20155;-87
2023/12/10 04:32:31;;;;;;;37.00;6.27;;;6.60;99.90;;;;;;6310115;22;20152;-87
2023/12/10 04:34:57;;;;;;;36.17;6.37;;;6.70;99.90;;;;;;6283117;22;20148;-87
2023/12/10 04:37:22;;;;;;;29.10;5.97;;;6.70;99.90;;;;;;6309967;22;20477;-87
2023/12/10 04:39:48;;;;;;;29.63;5.83;;;6.70;99.90;;;;;;6282682;22;20163;-86
2023/12/10 04:42:14;;;;;;;25.27;5.23;;;6.70;99.90;;;;;;6310056;22;20279;-89
2023/12/10 04:44:40;;;;;;;27.53;5.60;;;6.80;99.90;;;;;;6310438;22;20140;-87
2023/12/10 04:47:06;;;;;;;36.83;5.90;;;6.80;99.90;;;;;;6309860;22;20444;-86
2023/12/10 04:49:32;;;;;;;27.73;5.63;;;6.80;99.90;;;;;;6282465;22;20202;-88
2023/12/10 04:51:58;;;;;;;31.27;5.80;;;6.80;99.90;;;;;;6282692;22;20155;-87
2023/12/10 04:54:23;;;;;;;41.50;6.40;;;6.80;99.90;;;;;;6282223;22;20156;-88
2023/12/10 04:56:49;;;;;;;33.33;6.43;;;6.90;99.90;;;;;;6309712;22;20144;-89
2023/12/10 04:59:15;;;;;;;43.63;6.17;;;6.90;99.90;;;;;;6282822;22;20166;-88
2023/12/10 05:01:41;;;;;;;27.80;6.33;;;6.90;99.90;;;;;;6283047;22;20163;-87
2023/12/10 05:04:07;;;;;;;28.60;5.93;;;6.90;99.90;;;;;;6282732;22;20229;-87
2023/12/10 05:06:33;;;;;;;29.57;5.40;;;6.90;99.90;;;;;;6282647;22;20160;-87
2023/12/10 05:08:59;;;;;;;34.67;6.67;;;7.00;99.90;;;;;;6282177;22;20266;-88
2023/12/10 05:11:25;;;;;;;30.27;5.97;;;7.00;99.90;;;;;;6282568;22;20152;-87
2023/12/10 05:13:51;;;;;;;29.23;5.53;;;7.10;99.90;;;;;;6282552;22;20156;-87
2023/12/10 05:16:17;;;;;;;28.03;5.57;;;7.10;99.90;;;;;;6309747;22;20543;-88
2023/12/10 05:18:42;;;;;;;28.97;5.37;;;7.20;99.90;;;;;;6309645;22;20191;-87
2023/12/10 05:21:10;;;;;;;23.13;4.80;;;7.20;99.90;;;;;;6309650;22;20148;-87
2023/12/10 05:23:36;;;;;;;26.17;5.53;;;7.20;99.90;;;;;;6309271;22;20186;-87
2023/12/10 05:26:02;;;;;;;25.53;5.30;;;7.20;99.90;;;;;;6282313;22;20203;-87
2023/12/10 05:28:27;;;;;;;22.27;5.13;;;7.20;99.90;;;;;;6282187;22;20225;-88
2023/12/10 05:30:54;;;;;;;27.07;4.90;;;7.20;99.90;;;;;;6282459;22;20204;-87
2023/12/10 05:33:20;;;;;;;26.17;5.37;;;7.20;99.90;;;;;;6282397;22;20158;-88
2023/12/10 05:35:46;;;;;;;21.90;4.97;;;7.20;99.90;;;;;;6282014;22;20242;-88
2023/12/10 05:38:11;;;;;;;30.47;5.80;;;7.20;99.90;;;;;;6307967;22;20150;-87
2023/12/10 05:40:37;;;;;;;18.03;4.87;;;7.20;99.90;;;;;;6282108;22;20242;-87
2023/12/10 05:43:04;;;;;;;19.53;4.30;;;7.20;99.90;;;;;;6309143;22;20163;-87
2023/12/10 05:45:30;;;;;;;24.77;5.00;;;7.20;99.90;;;;;;6282200;22;20482;-86
2023/12/10 05:47:56;;;;;;;22.70;5.30;;;7.20;99.90;;;;;;6309747;22;20172;-85
2023/12/10 05:50:23;;;;;;;18.23;4.17;;;7.20;99.90;;;;;;6282742;22;20671;-87
2023/12/10 05:52:56;;;;;;;25.03;4.00;;;7.30;99.90;;;;;;6309263;22;20148;-89
2023/12/10 05:55:21;;;;;;;18.87;4.33;;;7.20;99.90;;;;;;6282459;22;20495;-90
2023/12/10 05:57:47;;;;;;;22.40;4.30;;;7.20;99.90;;;;;;6282669;22;20155;-89
2023/12/10 06:00:13;;;;;;;21.50;4.57;;;7.20;99.90;;;;;;6282450;22;20187;-90
2023/12/10 06:02:53;;;;;;;19.10;4.30;;;7.20;99.90;;;;;;6309740;22;20147;-89
2023/12/10 06:05:19;;;;;;;22.63;4.30;;;7.20;99.90;;;;;;6282367;22;20168;-89
2023/12/10 06:07:44;;;;;;;16.80;3.47;;;7.30;99.90;;;;;;6281596;22;20179;-88
2023/12/10 06:10:12;;;;;;;18.53;3.63;;;7.20;99.90;;;;;;6309523;22;20434;-87
2023/12/10 06:12:40;;;;;;;18.77;3.43;;;7.20;99.90;;;;;;6282026;22;20186;-85
2023/12/10 06:15:06;;;;;;;14.67;3.30;;;7.20;99.90;;;;;;6282285;22;20160;-88
2023/12/10 06:17:32;;;;;;;15.33;3.30;;;7.20;99.90;;;;;;6281584;22;20242;-85
2023/12/10 06:19:57;;;;;;;18.10;4.07;;;7.20;99.90;;;;;;6281749;22;20211;-90
2023/12/10 06:22:29;;;;;;;17.83;3.83;;;7.20;99.90;;;;;;6283083;22;20156;-90
2023/12/10 06:24:55;;;;;;;20.33;3.90;;;7.20;99.90;;;;;;6284508;22;20152;-90
2023/12/10 06:27:21;;;;;;;17.40;3.90;;;7.30;99.90;;;;;;6284146;22;20183;-90
2023/12/10 06:29:46;;;;;;;19.10;3.07;;;7.20;99.90;;;;;;6284281;22;20175;-85
2023/12/10 06:32:12;;;;;;;17.00;3.90;;;7.30;99.90;;;;;;6311530;22;20144;-85
2023/12/10 06:34:38;;;;;;;13.43;3.50;;;7.30;99.90;;;;;;6284423;22;20607;-86
2023/12/10 06:37:04;;;;;;;16.40;3.93;;;7.30;99.90;;;;;;6284243;22;20187;-88
2023/12/10 06:39:29;;;;;;;23.30;4.13;;;7.30;99.90;;;;;;6284125;22;20597;-88
2023/12/10 06:41:56;;;;;;;13.93;2.80;;;7.40;99.90;;;;;;6284132;22;20152;-90
2023/12/10 06:44:24;;;;;;;11.07;2.70;;;7.40;99.90;;;;;;6284484;22;20156;-86
2023/12/10 06:46:50;;;;;;;17.37;3.37;;;7.40;99.90;;;;;;6284108;22;20155;-88
2023/12/10 06:49:17;;;;;;;18.67;3.43;;;7.40;99.90;;;;;;6284614;22;20270;-89
2023/12/10 06:51:45;;;;;;;15.33;3.03;;;7.40;99.90;;;;;;6283485;22;20164;-90
2023/12/10 06:54:11;;;;;;;18.60;2.53;;;7.50;99.90;;;;;;6283623;22;20156;-88
2023/12/10 06:56:40;;;;;;;12.53;3.00;;;7.60;99.90;;;;;;6283866;22;20547;-89
2023/12/10 06:59:07;;;;;;;11.07;2.30;;;7.60;99.90;;;;;;6311749;22;20148;-88
2023/12/10 07:01:40;;;;;;;17.97;3.47;;;7.60;99.90;;;;;;6283576;22;20156;-88
2023/12/10 07:04:07;;;;;;;9.80;2.30;;;7.60;99.90;;;;;;6283229;22;20156;-87
2023/12/10 07:06:33;;;;;;;8.83;2.20;;;7.50;99.90;;;;;;6310519;22;20144;-86
2023/12/10 07:08:59;;;;;;;10.07;2.00;;;7.50;99.90;;;;;;6283065;22;20188;-88
2023/12/10 07:11:25;;;;;;;12.23;2.13;;;7.40;99.90;;;;;;6284751;22;20159;-88
2023/12/10 07:13:53;;;;;;;11.23;2.10;;;7.40;99.90;;;;;;6284487;22;20160;-88
2023/12/10 07:16:19;;;;;;;9.33;2.00;;;7.30;99.90;;;;;;6283181;22;20235;-86
2023/12/10 07:18:45;;;;;;;13.30;2.40;;;7.30;99.90;;;;;;6283376;22;20559;-86
2023/12/10 07:21:11;;;;;;;8.93;1.90;;;7.20;99.90;;;;;;6283409;22;20164;-87
2023/12/10 07:23:39;;;;;;;11.70;2.43;;;7.30;99.90;;;;;;6283229;22;20234;-88
2023/12/10 07:26:05;;;;;;;11.60;2.07;;;7.20;99.90;;;;;;6283372;22;20156;-87
2023/12/10 07:28:31;;;;;;;8.07;1.87;;;7.20;99.90;;;;;;6283132;22;20215;-87
2023/12/10 07:30:57;;;;;;;7.07;1.50;;;7.20;99.90;;;;;;6283269;22;20837;-88
2023/12/10 07:33:25;;;;;;;8.20;2.10;;;7.20;99.90;;;;;;6282260;22;20485;-86
2023/12/10 07:35:50;;;;;;;5.17;1.40;;;7.20;99.90;;;;;;6283058;22;20231;-86
2023/12/10 07:38:16;;;;;;;12.03;2.17;;;7.20;99.90;;;;;;6283076;22;20187;-88
2023/12/10 07:40:42;;;;;;;6.83;1.57;;;7.20;99.90;;;;;;6283137;22;20468;-86
2023/12/10 07:43:10;;;;;;;6.60;1.80;;;7.10;99.90;;;;;;6283104;22;20165;-87
2023/12/10 07:45:35;;;;;;;9.73;2.07;;;7.10;99.90;;;;;;6283026;22;20174;-87
2023/12/10 07:48:01;;;;;;;7.10;1.60;;;7.10;99.90;;;;;;6283252;22;20188;-89
2023/12/10 07:50:27;;;;;;;6.13;1.67;;;7.10;99.90;;;;;;6283414;22;20163;-88
2023/12/10 07:52:55;;;;;;;6.83;1.53;;;7.00;99.90;;;;;;6283336;22;20468;-87
2023/12/10 07:55:21;;;;;;;7.50;1.87;;;7.00;99.90;;;;;;6282895;22;20174;-87
2023/12/10 07:57:46;;;;;;;6.30;1.80;;;7.00;99.90;;;;;;6283168;22;20156;-87
2023/12/10 08:00:13;;;;;;;7.17;1.33;;;6.90;99.90;;;;;;6310136;22;20186;-88
2023/12/10 08:02:39;;;;;;;6.77;1.60;;;7.00;99.90;;;;;;6283074;22;20159;-89
2023/12/10 08:05:05;;;;;;;8.30;1.47;;;7.00;99.90;;;;;;6282971;22;20148;-87
2023/12/10 08:07:31;;;;;;;9.47;1.80;;;7.00;99.90;;;;;;6310242;22;20179;-86
2023/12/10 08:09:56;;;;;;;5.60;1.50;;;7.00;99.90;;;;;;6283093;22;20474;-85
2023/12/10 08:12:22;;;;;;;6.30;1.40;;;7.00;99.90;;;;;;6282866;22;20163;-87
2023/12/10 08:14:48;;;;;;;5.63;1.20;;;7.00;99.90;;;;;;6310289;22;20156;-88
2023/12/10 08:17:14;;;;;;;7.50;1.60;;;7.00;99.90;;;;;;6282171;22;20159;-88
2023/12/10 08:19:39;;;;;;;6.93;1.63;;;6.90;99.90;;;;;;6309849;22;20218;-85
2023/12/10 08:22:06;;;;;;;5.07;1.30;;;6.90;99.90;;;;;;6310221;22;20151;-88
2023/12/10 08:24:35;;;;;;;6.73;1.53;;;6.90;99.90;;;;;;6310066;22;20148;-87
2023/12/10 08:27:01;;;;;;;4.83;1.40;;;7.00;99.90;;;;;;6277306;22;20531;-84
2023/12/10 08:29:26;;;;;;;3.63;1.00;;;6.90;99.90;;;;;;6282075;22;20278;-86
2023/12/10 08:31:52;;;;;;;4.70;1.23;;;6.90;99.90;;;;;;6282271;22;20152;-86
2023/12/10 08:34:18;;;;;;;5.87;1.30;;;7.00;99.90;;;;;;6282195;22;20163;-86
2023/12/10 08:36:43;;;;;;;4.47;1.27;;;6.90;99.90;;;;;;6282570;22;20151;-85
2023/12/10 08:39:09;;;;;;;5.73;1.30;;;7.00;99.90;;;;;;6309844;22;20152;-86
2023/12/10 08:41:38;;;;;;;4.80;1.30;;;7.00;99.90;;;;;;6309080;22;20440;-87
2023/12/10 08:44:04;;;;;;;3.47;1.30;;;7.00;99.90;;;;;;6309904;22;20559;-88
2023/12/10 08:46:30;;;;;;;6.13;1.17;;;7.00;99.90;;;;;;6281794;22;20159;-86
2023/12/10 08:48:56;;;;;;;3.43;1.20;;;7.00;99.90;;;;;;6281912;22;20492;-84
2023/12/10 08:51:21;;;;;;;5.27;1.20;;;7.00;99.90;;;;;;6281912;22;20152;-86
2023/12/10 08:53:47;;;;;;;6.20;1.40;;;7.00;99.90;;;;;;6282496;22;20159;-86
2023/12/10 08:56:13;;;;;;;5.60;1.43;;;7.00;99.90;;;;;;6309115;22;20436;-85
2023/12/10 08:58:39;;;;;;;5.10;1.20;;;7.00;99.90;;;;;;6309599;22;20183;-89
2023/12/10 09:01:06;;;;;;;5.03;1.27;;;6.90;99.90;;;;;;6282045;22;20209;-86
2023/12/10 09:03:34;;;;;;;3.37;1.00;;;6.90;99.90;;;;;;6281751;22;20504;-85
2023/12/10 09:06:00;;;;;;;5.60;1.27;;;7.00;99.90;;;;;;6282614;22;20176;-85
2023/12/10 09:08:26;;;;;;;7.00;1.80;;;7.00;99.90;;;;;;6281931;22;20192;-85
2023/12/10 09:10:53;;;;;;;4.87;1.57;;;7.10;99.90;;;;;;6281697;22;20163;-86
2023/12/10 09:13:19;;;;;;;7.63;1.97;;;7.10;99.90;;;;;;6309368;22;20231;-86
2023/12/10 09:15:45;;;;;;;3.83;1.23;;;7.10;99.90;;;;;;6309018;22;20516;-85
2023/12/10 09:18:11;;;;;;;5.33;1.20;;;7.00;99.90;;;;;;6308686;22;20190;-86
2023/12/10 09:20:36;;;;;;;5.97;1.30;;;7.00;99.90;;;;;;6282052;22;20235;-86
2023/12/10 09:23:02;;;;;;;8.23;1.63;;;7.00;99.90;;;;;;6309191;22;20206;-88
2023/12/10 09:25:28;;;;;;;3.67;1.47;;;7.00;99.90;;;;;;6308864;22;20212;-84
2023/12/10 09:27:54;;;;;;;6.80;1.67;;;6.90;99.90;;;;;;6309013;22;20203;-89
2023/12/10 09:30:19;;;;;;;6.67;1.77;;;6.90;99.90;;;;;;6281989;22;20159;-86
2023/12/10 09:32:45;;;;;;;8.13;2.27;;;6.90;99.90;;;;;;6309035;22;20158;-86
2023/12/10 09:35:11;;;;;;;6.17;1.83;;;6.90;99.90;;;;;;6281352;22;20156;-86
2023/12/10 09:37:37;;;;;;;6.43;1.67;;;6.90;99.90;;;;;;6308202;22;20140;-85
2023/12/10 09:40:04;;;;;;;9.43;1.87;;;6.80;99.90;;;;;;6281880;22;20879;-84
2023/12/10 09:42:30;;;;;;;7.17;2.00;;;6.90;99.90;;;;;;6281742;22;20627;-85
2023/12/10 09:44:56;;;;;;;8.53;1.83;;;6.90;99.90;;;;;;6281842;22;20238;-84
2023/12/10 09:47:23;;;;;;;7.63;1.80;;;6.80;99.90;;;;;;6281542;22;20202;-85
2023/12/10 09:49:54;;;;;;;7.67;2.63;;;6.80;99.90;;;;;;6281333;22;20171;-86
2023/12/10 09:52:20;;;;;;;5.40;1.67;;;6.90;99.90;;;;;;6306134;22;20447;-83
2023/12/10 09:54:48;;;;;;;7.67;2.07;;;6.90;99.90;;;;;;6308003;22;20230;-84
2023/12/10 09:57:13;;;;;;;5.23;1.57;;;6.90;99.90;;;;;;6307771;22;20543;-90
2023/12/10 09:59:40;;;;;;;10.37;2.43;;;6.90;99.90;;;;;;6281588;22;20191;-85
2023/12/10 10:02:07;;;;;;;9.57;2.37;;;6.90;99.90;;;;;;6308700;22;20218;-84
2023/12/10 10:04:34;;;;;;;7.00;1.87;;;7.00;99.90;;;;;;6308330;22;20230;-86
2023/12/10 10:07:05;;;;;;;6.70;1.70;;;7.00;99.90;;;;;;6308415;22;20136;-86
2023/12/10 10:09:34;;;;;;;6.87;1.83;;;7.00;99.90;;;;;;6281916;22;20160;-92
2023/12/10 10:12:00;;;;;;;7.07;1.90;;;7.00;99.90;;;;;;6281246;22;20156;-91
2023/12/10 10:14:25;;;;;;;5.63;1.60;;;7.00;99.90;;;;;;6281127;22;20216;-94
2023/12/10 10:16:51;;;;;;;8.20;2.20;;;7.00;99.90;;;;;;6281787;22;20152;-92
2023/12/10 10:19:17;;;;;;;9.10;2.37;;;7.10;99.90;;;;;;6308960;22;20203;-92
2023/12/10 10:21:44;;;;;;;7.57;2.13;;;7.10;99.90;;;;;;6308784;22;20175;-90
2023/12/10 10:24:11;;;;;;;13.37;2.20;;;7.10;99.90;;;;;;6308938;22;20159;-86
2023/12/10 10:26:38;;;;;;;8.43;2.00;;;7.20;99.90;;;;;;6309070;22;20167;-85
2023/12/10 10:29:05;;;;;;;6.20;1.73;;;7.20;99.90;;;;;;6281891;22;20242;-92
2023/12/10 10:31:32;;;;;;;10.23;2.00;;;7.30;99.90;;;;;;6282216;22;20216;-90
2023/12/10 10:34:02;;;;;;;7.40;1.80;;;7.30;99.90;;;;;;6281713;22;20160;-86
2023/12/10 10:36:29;;;;;;;7.20;1.73;;;7.30;99.90;;;;;;6309228;22;20140;-91
2023/12/10 10:38:56;;;;;;;9.77;2.30;;;7.40;99.90;;;;;;6282324;22;20571;-87
2023/12/10 10:41:22;;;;;;;8.93;2.40;;;7.40;99.90;;;;;;6282810;22;20152;-87
2023/12/10 10:43:49;;;;;;;7.23;2.37;;;7.40;99.90;;;;;;6282580;22;20151;-86
2023/12/10 10:46:21;;;;;;;7.27;2.00;;;7.50;99.90;;;;;;6282038;22;20210;-86
2023/12/10 10:48:51;;;;;;;11.50;2.23;;;7.50;99.90;;;;;;6281945;22;20243;-90
2023/12/10 10:51:29;;;;;;;12.40;2.20;;;7.50;99.90;;;;;;6282142;22;20196;-93
2023/12/10 10:53:58;;;;;;;12.17;2.77;;;7.50;99.90;;;;;;6307520;22;20217;-90
2023/12/10 10:56:24;;;;;;;10.30;2.33;;;7.50;99.90;;;;;;6281890;22;20163;-90
2023/12/10 10:58:50;;;;;;;8.87;2.10;;;7.50;99.90;;;;;;6281985;22;20231;-92
2023/12/10 11:01:35;;;;;;;7.03;2.00;;;7.50;99.90;;;;;;6281569;22;20496;-87
2023/12/10 11:04:01;;;;;;;11.43;2.13;;;7.50;99.90;;;;;;6308882;22;20148;-89
2023/12/10 11:06:28;;;;;;;10.37;2.20;;;7.50;99.90;;;;;;6281772;22;20255;-89
2023/12/10 11:09:00;;;;;;;9.53;1.90;;;7.60;99.90;;;;;;6310203;22;20175;-91
2023/12/10 11:11:26;;;;;;;9.80;2.20;;;7.60;99.90;;;;;;6310975;22;20175;-91
2023/12/10 11:13:53;;;;;;;7.23;1.90;;;7.60;99.90;;;;;;6311205;22;20152;-90
2023/12/10 11:16:25;;;;;;;10.60;2.10;;;7.70;99.90;;;;;;6282919;22;20156;-90
2023/12/10 11:18:55;;;;;;;11.80;2.50;;;7.70;99.90;;;;;;6310792;22;20445;-91
2023/12/10 11:21:21;;;;;;;13.43;2.50;;;7.70;99.90;;;;;;6310864;22;20260;-90
2023/12/10 11:23:47;;;;;;;7.50;2.23;;;7.70;99.90;;;;;;6311091;22;20152;-88
2023/12/10 11:26:23;;;;;;;9.87;2.07;;;7.70;99.90;;;;;;6283317;22;20152;-93
2023/12/10 11:28:50;;;;;;;11.47;1.80;;;7.80;99.90;;;;;;6311155;22;20590;-89
2023/12/10 11:31:17;;;;;;;11.70;2.70;;;7.80;99.90;;;;;;6283774;22;20152;-89
2023/12/10 11:33:43;;;;;;;12.23;2.70;;;7.80;99.90;;;;;;6284268;22;20156;-89
2023/12/10 11:36:17;;;;;;;10.37;2.03;;;7.80;99.90;;;;;;6311045;22;20148;-90
2023/12/10 11:38:49;;;;;;;11.97;2.07;;;7.80;99.90;;;;;;6307799;22;20197;-83
2023/12/10 11:41:16;;;;;;;9.77;1.90;;;7.80;99.90;;;;;;6279390;22;20209;-85
2023/12/10 11:43:48;;;;;;;10.47;2.67;;;7.80;99.90;;;;;;6282442;22;20152;-85
2023/12/10 11:46:22;;;;;;;14.97;2.20;;;7.90;99.90;;;;;;6308666;22;20148;-89
2023/12/10 11:48:53;;;;;;;18.67;2.70;;;7.80;99.90;;;;;;6307980;22;20172;-84
2023/12/10 11:51:20;;;;;;;13.90;2.43;;;7.80;99.90;;;;;;6307500;22;20155;-88
2023/12/10 11:53:46;;;;;;;11.53;2.37;;;7.70;99.90;;;;;;6282620;22;20462;-84
2023/12/10 11:56:12;;;;;;;11.43;1.90;;;7.70;99.90;;;;;;6308890;22;20152;-85
2023/12/10 11:58:41;;;;;;;12.00;2.27;;;7.70;99.90;;;;;;6281897;22;20156;-84
2023/12/10 12:01:07;;;;;;;9.87;2.63;;;7.70;99.90;;;;;;6309700;22;20155;-85
2023/12/10 12:03:34;;;;;;;11.13;2.20;;;7.70;99.90;;;;;;6308390;22;20156;-84
2023/12/10 12:06:00;;;;;;;8.77;2.57;;;7.60;99.90;;;;;;6281698;22;20539;-84
2023/12/10 12:08:27;;;;;;;14.67;2.63;;;7.60;99.90;;;;;;6309448;22;20172;-85
2023/12/10 12:10:54;;;;;;;13.00;2.73;;;7.70;99.90;;;;;;6309741;22;20147;-84
2023/12/10 12:13:20;;;;;;;12.27;2.30;;;7.60;99.90;;;;;;6310168;22;20148;-85
2023/12/10 12:15:47;;;;;;;14.13;2.47;;;7.60;99.90;;;;;;6282319;22;20152;-84
2023/12/10 12:18:13;;;;;;;15.20;3.00;;;7.60;99.90;;;;;;6281435;22;20579;-84
2023/12/10 12:20:39;;;;;;;12.10;2.50;;;7.60;99.90;;;;;;6281241;22;20187;-85
2023/12/10 12:23:05;;;;;;;12.88;2.47;;;7.60;99.90;;;;;;6282473;22;20156;-85
2023/12/10 12:25:38;;;;;;;15.47;2.50;;;7.60;99.90;;;;;;6282445;22;20160;-85
2023/12/10 12:28:07;;;;;;;12.47;2.43;;;7.60;99.90;;;;;;6282456;22;20184;-87
2023/12/10 12:30:34;;;;;;;18.03;2.73;;;7.60;99.90;;;;;;6309818;22;20148;-86
2023/12/10 12:33:01;;;;;;;13.47;2.63;;;7.50;99.90;;;;;;6309666;22;20155;-86
2023/12/10 12:35:28;;;;;;;9.10;2.27;;;7.50;99.90;;;;;;6282000;22;20234;-84
2023/12/10 12:37:54;;;;;;;11.40;3.07;;;7.50;99.90;;;;;;6282412;22;20143;-86
2023/12/10 12:40:20;;;;;;;11.40;2.30;;;7.50;99.90;;;;;;6309793;22;20147;-84
2023/12/10 12:42:49;;;;;;;12.83;2.10;;;7.50;99.90;;;;;;6309447;22;20140;-85
2023/12/10 12:45:19;;;;;;;12.97;2.23;;;7.50;99.90;;;;;;6282067;22;20235;-84
2023/12/10 12:47:46;;;;;;;8.17;2.30;;;7.50;99.90;;;;;;6309258;22;20172;-83
2023/12/10 12:50:12;;;;;;;14.63;2.47;;;7.50;99.90;;;;;;6281841;22;20156;-83